Time;durP1;ratioP1;P1;durP2;ratioP2;P2;SDS_P1;SDS_P2;PMS_P1;PMS_P2;Temp;Humidity;BMP_temperature;BMP_pressure;BME280_temperature;BME280_humidity;BME280_pressure;Samples;Min_cycle;Max_cycle;Signal;HPM_P1;HPM_P2
2022/01/15 05:01:08;;;;;;;13.30;10.23;;;;;;;1.63;100.00;95111.41;5669752;23;20080;-79
2022/01/15 05:03:33;;;;;;;17.92;11.48;;;;;;;1.71;100.00;95118.47;4985733;28;20034;-77
2022/01/15 05:05:59;;;;;;;13.70;9.73;;;;;;;1.78;100.00;95112.00;4988434;28;20026;-78
2022/01/15 05:08:24;;;;;;;14.55;10.23;;;;;;;1.94;100.00;95115.03;4988865;28;20097;-78
2022/01/15 05:10:50;;;;;;;12.40;9.88;;;;;;;2.06;100.00;95109.00;4990582;28;20109;-78
2022/01/15 05:13:20;;;;;;;12.45;9.52;;;;;;;2.12;100.00;95113.66;4990676;28;20077;-76
2022/01/15 05:15:45;;;;;;;13.55;11.23;;;;;;;2.13;100.00;95116.09;5006446;28;20030;-75
2022/01/15 05:18:11;;;;;;;13.45;10.63;;;;;;;2.18;100.00;95117.50;4991478;28;20027;-76
2022/01/15 05:20:41;;;;;;;15.02;10.48;;;;;;;2.19;100.00;95122.47;4990906;28;20030;-75
2022/01/15 05:23:06;;;;;;;14.45;10.43;;;;;;;2.23;100.00;95126.44;4991911;28;20027;-75
2022/01/15 05:25:32;;;;;;;14.35;10.18;;;;;;;2.26;100.00;95127.94;5005573;28;20045;-76
2022/01/15 05:27:57;;;;;;;13.75;11.05;;;;;;;2.30;100.00;95125.03;4991859;28;20164;-78
2022/01/15 05:30:23;;;;;;;16.85;12.05;;;;;;;2.34;100.00;95129.00;4990427;28;20026;-78
2022/01/15 05:32:48;;;;;;;14.38;10.23;;;;;;;2.39;100.00;95126.91;4990151;28;20522;-78
2022/01/15 05:35:14;;;;;;;18.08;11.73;;;;;;;2.36;100.00;95116.09;4990837;28;20034;-75
2022/01/15 05:37:39;;;;;;;18.42;10.82;;;;;;;2.34;100.00;95126.44;5006253;28;20038;-76
2022/01/15 05:40:06;;;;;;;14.10;10.45;;;;;;;2.39;100.00;95136.31;4991261;28;20031;-76
2022/01/15 05:42:31;;;;;;;19.70;11.07;;;;;;;2.36;100.00;95132.25;5005076;28;20490;-75
2022/01/15 05:44:57;;;;;;;16.00;11.88;;;;;;;2.32;100.00;95135.94;4991480;28;20030;-75
2022/01/15 05:47:22;;;;;;;15.50;10.77;;;;;;;2.36;100.00;95142.47;4990008;28;20419;-75
2022/01/15 05:49:49;;;;;;;18.35;12.18;;;;;;;2.34;100.00;95139.22;5006743;28;20030;-75
2022/01/15 05:52:14;;;;;;;14.80;10.65;;;;;;;2.31;100.00;95139.44;4989467;28;20028;-78
2022/01/15 05:54:39;;;;;;;19.52;11.88;;;;;;;2.35;100.00;95145.13;4991573;28;20034;-78
2022/01/15 05:57:05;;;;;;;14.85;11.02;;;;;;;2.39;100.00;95155.00;4989228;28;20030;-79
2022/01/15 05:59:30;;;;;;;15.15;10.85;;;;;;;2.30;100.00;95163.38;4989177;28;20023;-78
2022/01/15 06:01:56;;;;;;;14.15;11.15;;;;;;;2.33;100.00;95164.88;4990480;28;20462;-77
2022/01/15 06:04:21;;;;;;;13.93;11.70;;;;;;;2.29;100.00;95164.28;4989876;28;20050;-78
2022/01/15 06:06:47;;;;;;;19.38;13.27;;;;;;;2.33;100.00;95173.34;5006507;28;20064;-77
2022/01/15 06:09:12;;;;;;;14.27;11.15;;;;;;;2.32;100.00;95181.94;5004401;28;20411;-79
2022/01/15 06:11:39;;;;;;;17.73;11.90;;;;;;;2.33;100.00;95191.25;4991007;28;20044;-80
2022/01/15 06:14:05;;;;;;;17.40;13.38;;;;;;;2.30;100.00;95194.03;4988391;28;20045;-78
2022/01/15 06:16:31;;;;;;;19.60;12.73;;;;;;;2.29;100.00;95194.94;5005692;28;20030;-78
2022/01/15 06:18:56;;;;;;;17.63;12.48;;;;;;;2.33;100.00;95195.53;4989994;28;20491;-78
2022/01/15 06:21:22;;;;;;;18.42;12.15;;;;;;;2.35;100.00;95196.22;4989565;28;20058;-78
2022/01/15 06:23:47;;;;;;;15.88;11.95;;;;;;;2.40;100.00;95204.38;5006052;28;20109;-78
2022/01/15 06:26:13;;;;;;;18.05;12.02;;;;;;;2.35;100.00;95214.91;4989266;28;20036;-79
2022/01/15 06:28:39;;;;;;;17.05;13.30;;;;;;;2.35;100.00;95217.47;5006068;28;20035;-78
2022/01/15 06:31:04;;;;;;;19.33;12.25;;;;;;;2.31;100.00;95221.19;4971225;28;20046;-78
2022/01/15 06:33:30;;;;;;;17.02;12.13;;;;;;;2.29;100.00;95217.13;5005862;28;20476;-78
2022/01/15 06:35:55;;;;;;;22.55;13.18;;;;;;;2.34;100.00;95215.88;4989855;28;20054;-78
2022/01/15 06:38:21;;;;;;;19.45;13.00;;;;;;;2.37;100.00;95210.53;4989772;28;20035;-78
2022/01/15 06:40:47;;;;;;;20.33;14.82;;;;;;;2.46;100.00;95217.50;5005683;28;20045;-79
2022/01/15 06:43:12;;;;;;;16.38;13.23;;;;;;;2.46;100.00;95222.59;5003460;28;20029;-79
2022/01/15 06:45:38;;;;;;;17.23;12.50;;;;;;;2.48;100.00;95225.03;5005606;28;20057;-78
2022/01/15 06:48:04;;;;;;;19.52;14.35;;;;;;;2.46;100.00;95219.25;4989108;28;20462;-78
2022/01/15 06:50:29;;;;;;;22.20;14.35;;;;;;;2.46;100.00;95221.78;5005310;28;20026;-78
2022/01/15 06:52:55;;;;;;;21.08;14.25;;;;;;;2.47;100.00;95221.66;5004313;28;20022;-78
2022/01/15 06:55:21;;;;;;;23.77;15.35;;;;;;;2.45;100.00;95217.59;5005233;28;20015;-78
2022/01/15 06:57:46;;;;;;;21.15;14.02;;;;;;;2.49;100.00;95222.38;5004692;28;20108;-78
2022/01/15 07:00:13;;;;;;;20.38;14.63;;;;;;;2.55;100.00;95223.66;5004166;28;20037;-78
2022/01/15 07:02:38;;;;;;;21.08;15.20;;;;;;;2.56;100.00;95213.31;4990122;28;20054;-79
2022/01/15 07:05:05;;;;;;;23.55;15.85;;;;;;;2.55;100.00;95224.47;4988646;28;20487;-78
2022/01/15 07:07:31;;;;;;;21.65;15.48;;;;;;;2.55;100.00;95229.56;5004972;28;20122;-78
2022/01/15 07:09:56;;;;;;;22.42;15.02;;;;;;;2.59;100.00;95241.22;4987360;28;20062;-79
2022/01/15 07:12:22;;;;;;;20.75;14.18;;;;;;;2.65;100.00;95240.75;4989279;28;20496;-78
2022/01/15 07:14:47;;;;;;;18.73;13.48;;;;;;;2.64;100.00;95257.00;4989414;28;20026;-78
2022/01/15 07:17:15;;;;;;;19.92;14.50;;;;;;;2.61;100.00;95254.69;5004290;28;20024;-78
2022/01/15 07:19:40;;;;;;;20.15;14.38;;;;;;;2.72;100.00;95258.16;4989970;28;20089;-78
2022/01/15 07:22:06;;;;;;;21.77;14.82;;;;;;;2.76;100.00;95267.25;4987924;28;20446;-78
2022/01/15 07:24:32;;;;;;;20.00;13.90;;;;;;;2.77;100.00;95277.34;5004750;28;20566;-78
2022/01/15 07:26:57;;;;;;;21.60;15.10;;;;;;;2.72;100.00;95274.31;4988634;28;20030;-78
2022/01/15 07:29:24;;;;;;;18.98;14.38;;;;;;;2.74;100.00;95282.69;4985940;28;20416;-77
2022/01/15 07:31:51;;;;;;;19.73;14.30;;;;;;;2.77;100.00;95286.75;5002791;28;20515;-78
2022/01/15 07:34:17;;;;;;;19.52;13.52;;;;;;;2.78;100.00;95285.81;4989249;28;20022;-78
2022/01/15 07:36:43;;;;;;;20.20;14.35;;;;;;;2.93;100.00;95292.34;4989238;28;20081;-78
2022/01/15 07:39:09;;;;;;;24.88;16.35;;;;;;;2.92;100.00;95283.84;4986973;28;20026;-75
2022/01/15 07:41:35;;;;;;;17.73;12.95;;;;;;;2.87;100.00;95290.25;4989064;28;20042;-78
2022/01/15 07:44:00;;;;;;;16.20;13.00;;;;;;;2.82;100.00;95297.47;4986647;28;20081;-78
2022/01/15 07:46:26;;;;;;;20.77;14.57;;;;;;;2.81;100.00;95306.88;4987900;28;20031;-78
2022/01/15 07:48:52;;;;;;;19.15;14.23;;;;;;;2.87;100.00;95310.69;4986640;28;20033;-78
2022/01/15 07:51:17;;;;;;;19.98;15.00;;;;;;;2.82;100.00;95323.03;4988940;28;20089;-78
2022/01/15 07:53:43;;;;;;;21.23;14.85;;;;;;;2.82;100.00;95317.91;4986937;28;20105;-78
2022/01/15 07:56:08;;;;;;;23.25;15.50;;;;;;;2.82;100.00;95318.72;4994379;28;20483;-75
2022/01/15 07:58:35;;;;;;;20.70;14.50;;;;;;;2.74;100.00;95322.78;4997067;28;20046;-75
2022/01/15 08:01:01;;;;;;;21.70;14.38;;;;;;;2.78;100.00;95331.84;4997438;28;20038;-75
2022/01/15 08:03:26;;;;;;;22.13;15.15;;;;;;;2.75;100.00;95343.13;4998307;28;20037;-76
2022/01/15 08:05:51;;;;;;;19.98;15.13;;;;;;;2.79;100.00;95341.97;4994938;28;20022;-78
2022/01/15 08:08:17;;;;;;;21.77;14.93;;;;;;;2.79;100.00;95344.53;4999403;28;20022;-78
2022/01/15 08:10:44;;;;;;;21.15;15.52;;;;;;;2.77;100.00;95346.38;4990867;28;20026;-77
2022/01/15 08:13:09;;;;;;;27.33;16.65;;;;;;;2.89;100.00;95349.78;4987732;28;20030;-77
2022/01/15 08:15:35;;;;;;;22.77;16.02;;;;;;;2.84;100.00;95351.84;4988178;28;20546;-77
2022/01/15 08:18:00;;;;;;;21.95;14.88;;;;;;;2.85;100.00;95354.31;4970338;28;20113;-77
2022/01/15 08:20:26;;;;;;;26.10;15.70;;;;;;;2.81;100.00;95359.75;4988951;28;20081;-77
2022/01/15 08:22:52;;;;;;;21.27;15.07;;;;;;;2.82;100.00;95369.06;4987243;28;20033;-77
2022/01/15 08:25:18;;;;;;;20.33;14.60;;;;;;;2.77;100.00;95374.50;4988539;28;20031;-77
2022/01/15 08:27:45;;;;;;;22.63;15.55;;;;;;;2.80;100.00;95376.81;5002360;28;20381;-77
2022/01/15 08:30:11;;;;;;;23.00;16.73;;;;;;;2.86;100.00;95385.81;4987493;28;20034;-77
2022/01/15 08:32:36;;;;;;;25.05;17.95;;;;;;;2.86;100.00;95385.81;5002349;28;20030;-75
2022/01/15 08:35:03;;;;;;;25.45;16.85;;;;;;;2.88;100.00;95387.31;4992605;28;20404;-76
2022/01/15 08:37:28;;;;;;;27.15;17.92;;;;;;;2.93;100.00;95386.97;4975965;28;20096;-76
2022/01/15 08:39:54;;;;;;;28.90;19.05;;;;;;;2.87;100.00;95387.41;4965988;28;20608;-76
2022/01/15 08:42:19;;;;;;;24.83;17.23;;;;;;;2.91;100.00;95393.94;4970885;28;20053;-75
2022/01/15 08:44:45;;;;;;;22.88;17.58;;;;;;;2.86;100.00;95396.03;4970465;28;20031;-76
2022/01/15 08:47:11;;;;;;;23.00;16.23;;;;;;;2.88;100.00;95405.22;4988338;28;20027;-75
2022/01/15 08:49:37;;;;;;;25.20;17.15;;;;;;;2.86;100.00;95396.03;4954089;28;20045;-75
2022/01/15 08:52:04;;;;;;;26.33;17.10;;;;;;;2.84;100.00;95392.75;4981085;28;20117;-75
2022/01/15 08:54:29;;;;;;;25.42;16.77;;;;;;;2.90;100.00;95398.25;4990418;28;20034;-75
2022/01/15 08:56:55;;;;;;;24.08;17.95;;;;;;;2.96;100.00;95407.19;4990812;28;20026;-75
2022/01/15 08:59:23;;;;;;;25.65;17.20;;;;;;;2.97;100.00;95406.28;5000484;28;20399;-75
2022/01/15 09:01:48;;;;;;;26.50;18.58;;;;;;;2.90;100.00;95397.41;4997925;28;20548;-75
2022/01/15 09:04:14;;;;;;;25.02;17.50;;;;;;;2.99;100.00;95410.34;5001737;28;20030;-75
2022/01/15 09:06:39;;;;;;;24.88;16.92;;;;;;;2.97;100.00;95404.53;4998075;28;20022;-75
2022/01/15 09:09:05;;;;;;;25.33;17.40;;;;;;;2.99;100.00;95417.19;4999895;28;20062;-75
2022/01/15 09:11:31;;;;;;;23.17;16.15;;;;;;;3.00;100.00;95416.28;4990062;28;20108;-75
2022/01/15 09:13:56;;;;;;;22.77;15.40;;;;;;;3.01;100.00;95413.63;4991363;28;20037;-75
2022/01/15 09:16:22;;;;;;;24.10;15.68;;;;;;;3.07;100.00;95420.00;4991942;28;20026;-75
2022/01/15 09:18:47;;;;;;;22.15;14.98;;;;;;;3.13;100.00;95420.38;4990735;28;20031;-75
2022/01/15 09:21:13;;;;;;;21.92;15.30;;;;;;;3.16;100.00;95414.22;4990140;28;20081;-75
2022/01/15 09:23:38;;;;;;;22.42;13.98;;;;;;;3.27;100.00;95411.69;4989859;28;20033;-75
2022/01/15 09:26:04;;;;;;;19.23;14.40;;;;;;;3.42;100.00;95413.06;4982750;28;20031;-76
2022/01/15 09:31:13;;;;;;;20.85;15.63;;;;;;;3.72;100.00;95395.34;4989243;28;20092;-76
2022/01/15 09:33:39;;;;;;;19.02;15.38;;;;;;;4.09;100.00;95398.44;4989365;28;20030;-75
2022/01/15 09:36:05;;;;;;;20.85;15.45;;;;;;;4.10;99.41;95396.69;4988524;28;20062;-75
2022/01/15 09:38:31;;;;;;;19.02;14.73;;;;;;;3.94;99.04;95394.53;4990599;28;20034;-75
2022/01/15 09:40:57;;;;;;;26.52;17.02;;;;;;;4.08;98.45;95394.25;4988720;28;20038;-75
2022/01/15 09:43:22;;;;;;;21.52;16.63;;;;;;;4.10;97.36;95392.38;4990234;28;20381;-75
2022/01/15 09:45:48;;;;;;;23.08;16.23;;;;;;;4.10;96.88;95387.25;5002301;28;20027;-75
2022/01/15 09:48:15;;;;;;;21.05;15.40;;;;;;;4.02;97.10;95388.78;4990410;28;20100;-75
2022/01/15 09:50:43;;;;;;;20.65;15.18;;;;;;;4.10;96.69;95391.56;4990651;28;20487;-75
2022/01/15 09:53:10;;;;;;;24.40;14.50;;;;;;;3.93;97.14;95392.06;4988188;28;20026;-75
2022/01/15 09:55:36;;;;;;;22.48;14.73;;;;;;;3.91;96.62;95388.81;4990108;28;20546;-75
2022/01/15 09:58:03;;;;;;;21.58;14.20;;;;;;;3.91;96.87;95391.38;4989667;28;20034;-75
2022/01/15 10:00:29;;;;;;;20.55;14.32;;;;;;;4.01;97.56;95402.53;4991227;28;20117;-75
2022/01/15 10:02:55;;;;;;;21.83;15.35;;;;;;;4.00;98.00;95393.22;4989544;28;20031;-75
2022/01/15 10:05:21;;;;;;;25.17;16.02;;;;;;;3.89;96.92;95394.06;4989803;28;20033;-75
2022/01/15 10:08:09;;;;;;;20.20;15.13;;;;;;;3.92;96.65;95393.81;4990342;28;20027;-75
2022/01/15 10:10:36;;;;;;;17.38;14.45;;;;;;;3.89;96.15;95391.50;4989945;28;20026;-75
2022/01/15 10:13:17;;;;;;;18.83;14.73;;;;;;;3.92;96.03;95404.06;4989608;28;20030;-75
2022/01/15 10:15:44;;;;;;;24.92;14.65;;;;;;;4.00;95.93;95395.78;4988137;28;20053;-75
2022/01/15 10:18:19;;;;;;;19.30;13.98;;;;;;;3.95;96.32;95395.34;4989506;28;20037;-75
2022/01/15 10:20:44;;;;;;;18.92;13.73;;;;;;;4.00;96.26;95398.34;4977322;28;20045;-75
2022/01/15 10:23:17;;;;;;;18.67;14.45;;;;;;;3.95;96.96;95396.13;4990210;28;20030;-75
2022/01/15 10:25:43;;;;;;;19.52;16.50;;;;;;;4.04;97.19;95385.19;4991149;28;20022;-76
2022/01/15 10:28:09;;;;;;;22.63;14.15;;;;;;;4.05;94.79;95381.66;4983854;28;20030;-75
2022/01/15 10:30:35;;;;;;;20.58;13.77;;;;;;;4.05;94.31;95380.84;4981605;28;20142;-75
2022/01/15 10:33:10;;;;;;;28.33;18.95;;;;;;;4.03;93.77;95377.59;4988132;28;20508;-74
2022/01/15 10:35:40;;;;;;;19.40;13.73;;;;;;;4.11;92.38;95381.19;4990330;28;20109;-75
2022/01/15 10:38:12;;;;;;;23.13;14.95;;;;;;;4.15;92.56;95384.31;4989114;28;20058;-75
2022/01/15 10:40:45;;;;;;;21.52;15.43;;;;;;;4.30;92.50;95388.25;4987829;28;20131;-75
2022/01/15 10:43:12;;;;;;;32.53;24.92;;;;;;;4.25;92.13;95370.66;4988064;28;20034;-77
2022/01/15 10:45:56;;;;;;;30.58;21.05;;;;;;;4.50;91.52;95376.38;4986492;28;20033;-75
2022/01/15 10:48:31;;;;;;;35.63;23.17;;;;;;;4.42;91.10;95365.94;4988355;28;20865;-75
2022/01/15 10:51:04;;;;;;;43.72;25.38;;;;;;;4.83;89.70;95370.28;4987142;28;20026;-75
2022/01/15 10:53:48;;;;;;;39.63;23.88;;;;;;;4.68;89.35;95364.66;4987828;28;20491;-75
2022/01/15 10:56:15;;;;;;;20.98;15.95;;;;;;;4.76;89.15;95363.09;4987484;28;20026;-74
2022/01/15 10:58:44;;;;;;;16.52;13.15;;;;;;;4.67;88.05;95361.28;4986756;28;20085;-75
2022/01/15 11:01:13;;;;;;;17.45;13.73;;;;;;;4.78;86.63;95363.75;4989329;28;20056;-75
2022/01/15 11:03:44;;;;;;;15.35;11.82;;;;;;;4.63;87.57;95364.19;4985892;28;20023;-74
2022/01/15 11:06:09;;;;;;;16.88;13.40;;;;;;;4.84;87.06;95361.66;5004058;28;20027;-75
2022/01/15 11:08:40;;;;;;;18.52;12.88;;;;;;;4.90;87.32;95363.72;4987187;28;20027;-75
2022/01/15 11:11:06;;;;;;;15.30;12.43;;;;;;;4.93;86.32;95364.28;4988380;28;20116;-74
2022/01/15 11:13:34;;;;;;;16.45;11.27;;;;;;;4.80;86.08;95358.53;4988863;28;20599;-74
2022/01/15 11:16:20;;;;;;;21.98;12.52;;;;;;;4.67;86.27;95355.31;5002088;28;20033;-74
2022/01/15 11:18:49;;;;;;;16.73;13.25;;;;;;;4.76;86.22;95365.66;4988430;28;20315;-74
2022/01/15 11:21:19;;;;;;;15.00;11.23;;;;;;;4.61;87.06;95363.53;4987731;28;20515;-74
2022/01/15 11:23:46;;;;;;;14.95;11.40;;;;;;;4.63;86.38;95359.88;5002903;28;20030;-74
2022/01/15 11:26:20;;;;;;;15.63;12.18;;;;;;;4.66;87.10;95351.94;4988797;28;20033;-75
2022/01/15 11:28:46;;;;;;;14.68;13.13;;;;;;;4.60;86.03;95355.00;5005954;28;20026;-75
2022/01/15 11:31:34;;;;;;;16.63;12.75;;;;;;;4.70;86.00;95355.06;4990058;28;20060;-75
2022/01/15 11:34:02;;;;;;;17.50;13.90;;;;;;;4.66;86.12;95346.00;4981463;28;20057;-76
2022/01/15 11:36:33;;;;;;;19.10;15.65;;;;;;;4.83;85.98;95336.91;4987418;28;20022;-77
2022/01/15 11:39:03;;;;;;;19.98;14.65;;;;;;;5.26;84.85;95342.69;4988603;28;20117;-74
2022/01/15 11:41:29;;;;;;;19.00;14.35;;;;;;;5.12;85.33;95336.16;4984731;28;20897;-75
2022/01/15 11:44:21;;;;;;;18.70;13.07;;;;;;;5.23;83.79;95335.25;4988633;28;20081;-75
2022/01/15 11:46:49;;;;;;;18.52;12.30;;;;;;;5.12;83.92;95332.75;4979662;28;20120;-74
2022/01/15 11:49:28;;;;;;;14.60;12.52;;;;;;;5.51;83.25;95331.97;5007408;28;20084;-75
2022/01/15 11:52:14;;;;;;;15.07;12.27;;;;;;;5.21;83.67;95330.22;5006240;28;20084;-74
2022/01/15 11:54:49;;;;;;;16.15;13.32;;;;;;;5.04;84.34;95330.81;5006124;28;20760;-75
2022/01/15 11:57:34;;;;;;;18.25;13.70;;;;;;;5.02;83.79;95325.00;5008546;28;20495;-75
2022/01/15 12:00:16;;;;;;;23.50;14.13;;;;;;;5.53;83.13;95331.81;5005704;28;20076;-76
2022/01/15 12:02:42;;;;;;;14.93;12.10;;;;;;;6.04;80.37;95334.25;5005400;28;20411;-75
2022/01/15 12:05:19;;;;;;;14.50;11.82;;;;;;;6.24;78.70;95329.00;5004181;28;20029;-75
2022/01/15 12:07:47;;;;;;;13.13;10.70;;;;;;;6.64;77.73;95325.47;4992425;28;20352;-75
2022/01/15 12:10:14;;;;;;;16.10;10.75;;;;;;;6.93;76.56;95323.66;4994163;28;20054;-75
2022/01/15 12:12:52;;;;;;;14.15;11.25;;;;;;;7.01;76.05;95335.81;5018115;28;20045;-75
2022/01/15 12:15:26;;;;;;;11.77;10.13;;;;;;;7.04;74.59;95330.41;5002696;28;20034;-75
2022/01/15 12:18:00;;;;;;;12.60;10.63;;;;;;;7.11;73.25;95324.56;4985187;28;20502;-77
2022/01/15 12:20:28;;;;;;;14.15;11.48;;;;;;;6.55;73.60;95323.72;4994880;28;20062;-75
2022/01/15 12:23:06;;;;;;;11.45;9.55;;;;;;;6.71;73.21;95329.91;4975275;28;20125;-75
2022/01/15 12:25:35;;;;;;;15.57;11.45;;;;;;;6.66;74.55;95332.09;4984839;28;20443;-75
2022/01/15 12:28:04;;;;;;;12.57;11.27;;;;;;;6.66;74.82;95336.44;4988631;28;20029;-75
2022/01/15 12:30:42;;;;;;;14.73;11.60;;;;;;;6.47;73.43;95326.97;4984861;28;20093;-75
2022/01/15 12:33:13;;;;;;;14.43;11.68;;;;;;;6.45;73.50;95328.06;4985928;28;20822;-75
2022/01/15 12:35:40;;;;;;;14.15;12.65;;;;;;;6.25;74.37;95322.94;5002971;28;20026;-75
2022/01/15 12:38:10;;;;;;;14.70;10.70;;;;;;;6.05;74.24;95321.28;4985380;28;20130;-75
2022/01/15 12:40:42;;;;;;;11.35;9.63;;;;;;;6.42;73.77;95313.72;4986630;28;20644;-76
2022/01/15 12:43:25;;;;;;;15.55;11.55;;;;;;;6.17;74.32;95316.81;4986213;28;20033;-76
2022/01/15 12:46:02;;;;;;;12.52;10.25;;;;;;;6.21;74.41;95315.59;4986380;28;20141;-75
2022/01/15 12:48:32;;;;;;;13.90;10.05;;;;;;;6.12;73.17;95301.00;4987026;28;20027;-76
2022/01/15 12:51:04;;;;;;;12.00;9.95;;;;;;;5.89;73.07;95310.72;4985154;28;20089;-75
2022/01/15 12:53:35;;;;;;;13.00;9.52;;;;;;;6.08;73.39;95310.75;4986448;28;20030;-75
2022/01/15 12:56:00;;;;;;;14.85;10.88;;;;;;;6.19;72.36;95308.03;4985384;28;20109;-75
2022/01/15 12:58:27;;;;;;;18.30;12.68;;;;;;;6.09;73.98;95311.56;4988024;28;20109;-76
2022/01/15 13:00:53;;;;;;;12.73;10.40;;;;;;;6.08;74.13;95309.91;4984769;28;20230;-76
2022/01/15 13:03:25;;;;;;;14.32;10.98;;;;;;;6.02;73.63;95315.59;4987047;28;20476;-77
2022/01/15 13:05:55;;;;;;;15.10;11.68;;;;;;;5.88;73.62;95313.41;4988062;28;20026;-76
2022/01/15 13:08:36;;;;;;;12.10;10.07;;;;;;;5.97;73.84;95310.06;4986450;28;20033;-76
2022/01/15 13:11:07;;;;;;;12.98;9.45;;;;;;;5.83;73.76;95322.31;4986717;28;20023;-76
2022/01/15 13:13:38;;;;;;;12.88;10.18;;;;;;;5.94;74.33;95321.41;4985806;28;20105;-76
2022/01/15 13:16:05;;;;;;;14.77;9.80;;;;;;;5.83;74.45;95332.59;4987462;28;20080;-76
2022/01/15 13:18:35;;;;;;;11.68;9.77;;;;;;;5.84;73.40;95326.50;4986137;28;20065;-76
2022/01/15 13:21:03;;;;;;;13.20;9.38;;;;;;;5.82;73.63;95325.81;4984766;28;20618;-76
2022/01/15 13:23:40;;;;;;;12.32;10.00;;;;;;;5.59;74.96;95309.00;4987986;28;20050;-76
2022/01/15 13:26:08;;;;;;;10.60;8.98;;;;;;;5.54;74.91;95326.56;4986293;28;20033;-76
2022/01/15 13:28:35;;;;;;;12.13;9.80;;;;;;;5.62;74.37;95331.06;4988288;28;20018;-76
2022/01/15 13:31:00;;;;;;;13.90;9.70;;;;;;;5.62;74.33;95325.94;4988382;28;20030;-76
2022/01/15 13:33:43;;;;;;;12.27;9.13;;;;;;;5.54;73.86;95333.47;4991152;28;20023;-76
2022/01/15 13:36:11;;;;;;;13.70;10.18;;;;;;;5.45;73.86;95326.53;4992324;28;20141;-76
2022/01/15 13:38:38;;;;;;;13.48;9.18;;;;;;;5.43;74.41;95329.22;4972209;28;20080;-76
2022/01/15 13:41:24;;;;;;;12.07;9.75;;;;;;;5.35;75.28;95339.34;4989796;28;20520;-76
2022/01/15 13:43:55;;;;;;;9.88;7.93;;;;;;;5.28;75.77;95331.34;4988773;28;20034;-76
2022/01/15 13:46:22;;;;;;;9.25;7.75;;;;;;;5.28;74.82;95335.66;4991127;28;20026;-75
2022/01/15 13:48:58;;;;;;;13.10;7.65;;;;;;;5.23;74.76;95332.69;4989168;28;20034;-76
2022/01/15 13:54:14;;;;;;;9.50;8.50;;;;;;;5.03;74.95;95329.22;4990289;28;20124;-76
2022/01/15 13:56:51;;;;;;;11.35;8.20;;;;;;;5.02;75.60;95329.31;4987905;28;20026;-76
2022/01/15 13:59:18;;;;;;;10.30;8.50;;;;;;;5.00;76.14;95329.47;4989341;28;20034;-76
2022/01/15 14:01:50;;;;;;;9.63;8.63;;;;;;;4.97;76.95;95332.28;4988772;28;20416;-76
2022/01/15 14:04:25;;;;;;;11.93;8.95;;;;;;;5.07;77.74;95329.78;4990417;28;20029;-77
2022/01/15 14:06:51;;;;;;;14.95;10.80;;;;;;;4.89;78.64;95337.22;4989449;28;20027;-77
2022/01/15 14:09:18;;;;;;;10.77;9.07;;;;;;;4.71;79.16;95331.88;4988167;28;20034;-76
2022/01/15 14:12:04;;;;;;;14.35;9.88;;;;;;;4.57;80.20;95345.00;4988185;28;20031;-76
2022/01/15 14:14:32;;;;;;;12.85;9.43;;;;;;;4.59;80.61;95339.75;4993240;28;20353;-77
2022/01/15 14:17:00;;;;;;;11.73;9.07;;;;;;;4.51;79.98;95342.94;4989767;28;20027;-76
2022/01/15 14:22:22;;;;;;;13.85;10.68;;;;;;;4.38;80.26;95344.88;4988340;28;20026;-76
2022/01/15 14:24:49;;;;;;;18.90;11.32;;;;;;;4.32;80.09;95345.34;4979140;28;20045;-76
2022/01/15 14:27:24;;;;;;;13.15;10.05;;;;;;;4.13;81.55;95342.63;4986943;28;20414;-77
2022/01/15 14:29:52;;;;;;;13.30;9.70;;;;;;;3.94;82.13;95340.72;4990425;28;20038;-76
2022/01/15 14:32:18;;;;;;;11.80;9.43;;;;;;;3.87;81.53;95344.69;4989627;28;20126;-76
2022/01/15 14:34:53;;;;;;;15.35;10.95;;;;;;;3.94;82.00;95352.72;4987903;28;20169;-76
2022/01/15 14:37:18;;;;;;;17.85;11.27;;;;;;;3.86;82.56;95349.94;4990511;28;20022;-77
2022/01/15 14:39:44;;;;;;;21.33;13.73;;;;;;;3.74;82.47;95356.84;4988013;28;20034;-76
2022/01/15 14:42:09;;;;;;;27.65;16.67;;;;;;;3.69;83.50;95356.38;4989784;28;20037;-76
2022/01/15 14:44:34;;;;;;;28.20;14.57;;;;;;;3.53;84.56;95361.06;4987148;28;20084;-76
2022/01/15 14:47:00;;;;;;;23.25;13.50;;;;;;;3.42;84.88;95359.31;4989746;28;20022;-76
2022/01/15 14:49:25;;;;;;;15.50;11.25;;;;;;;3.25;85.17;95357.22;4989193;28;20058;-76
2022/01/15 14:51:51;;;;;;;16.17;10.95;;;;;;;3.33;85.35;95357.47;4988374;28;20030;-76
2022/01/15 14:54:17;;;;;;;14.60;10.52;;;;;;;3.19;86.11;95363.63;4987913;28;20475;-76
2022/01/15 14:56:43;;;;;;;15.98;11.30;;;;;;;3.06;86.94;95359.53;4988125;28;20027;-76
2022/01/15 14:59:08;;;;;;;15.43;10.40;;;;;;;2.94;88.15;95358.72;4988528;28;20176;-76
2022/01/15 15:01:34;;;;;;;16.38;11.40;;;;;;;2.89;88.60;95349.78;4988068;28;20064;-77
2022/01/15 15:04:00;;;;;;;13.25;10.52;;;;;;;2.80;89.18;95363.22;4986268;28;20036;-76
2022/01/15 15:06:28;;;;;;;15.23;10.77;;;;;;;2.70;90.02;95352.06;4986972;28;20030;-76
2022/01/15 15:08:53;;;;;;;17.00;11.98;;;;;;;2.67;90.70;95363.31;4986733;28;20523;-76
2022/01/15 15:11:19;;;;;;;20.27;13.40;;;;;;;2.60;92.30;95362.16;4987353;28;20381;-77
2022/01/15 15:13:44;;;;;;;27.65;16.77;;;;;;;2.49;92.23;95362.13;4986146;28;20100;-78
2022/01/15 15:16:11;;;;;;;34.65;19.70;;;;;;;2.32;94.14;95368.44;4987532;28;20037;-79
2022/01/15 15:18:37;;;;;;;25.45;18.23;;;;;;;2.20;94.66;95377.00;4981975;28;20050;-78
2022/01/15 15:21:03;;;;;;;26.48;17.70;;;;;;;2.23;94.82;95374.22;4973202;28;20069;-77
2022/01/15 15:23:30;;;;;;;33.63;20.05;;;;;;;2.24;93.31;95380.97;4987525;28;20058;-77
2022/01/15 15:25:56;;;;;;;27.38;18.23;;;;;;;2.21;93.37;95385.47;4982978;28;20065;-77
2022/01/15 15:28:22;;;;;;;25.08;16.92;;;;;;;2.07;93.36;95387.28;4987220;28;20037;-77
2022/01/15 15:30:49;;;;;;;28.67;19.00;;;;;;;2.01;93.92;95394.53;4986457;28;20023;-77
2022/01/15 15:33:14;;;;;;;32.72;19.15;;;;;;;1.90;94.20;95385.09;4986671;28;20030;-77
2022/01/15 15:35:40;;;;;;;34.22;21.00;;;;;;;1.87;94.47;95379.38;4987334;28;20033;-77
2022/01/15 15:38:06;;;;;;;41.08;25.67;;;;;;;1.79;94.28;95389.31;4979974;28;20061;-77
2022/01/15 15:40:31;;;;;;;56.47;32.63;;;;;;;1.68;94.91;95395.16;4997123;28;20135;-76
2022/01/15 15:42:58;;;;;;;38.20;23.10;;;;;;;1.71;94.74;95406.88;4999771;28;20118;-75
2022/01/15 15:45:24;;;;;;;33.50;22.23;;;;;;;1.63;95.52;95404.06;4968150;28;20026;-75
2022/01/15 15:47:50;;;;;;;34.08;20.95;;;;;;;1.47;96.15;95415.31;4987732;28;20037;-75
2022/01/15 15:50:16;;;;;;;37.42;22.80;;;;;;;1.43;96.42;95410.53;4987285;28;20029;-76
2022/01/15 15:52:42;;;;;;;45.92;26.15;;;;;;;1.38;96.81;95415.94;4984668;28;20121;-76
2022/01/15 15:55:08;;;;;;;29.05;20.85;;;;;;;1.44;96.50;95414.72;4987752;28;20106;-75
2022/01/15 15:57:35;;;;;;;26.30;17.35;;;;;;;1.31;96.77;95417.28;4986781;28;20572;-75
2022/01/15 16:00:00;;;;;;;31.02;19.33;;;;;;;1.33;97.03;95419.72;4987503;28;20032;-75
2022/01/15 16:02:26;;;;;;;31.92;19.30;;;;;;;1.37;96.48;95410.94;4984884;28;20117;-75
2022/01/15 16:04:51;;;;;;;27.20;16.40;;;;;;;1.29;96.11;95410.63;4987223;28;20034;-76
2022/01/15 16:07:17;;;;;;;29.88;18.10;;;;;;;1.34;95.57;95406.88;4986647;28;20133;-75
2022/01/15 16:09:43;;;;;;;32.03;19.08;;;;;;;1.33;95.87;95417.97;4985676;28;20049;-75
2022/01/15 16:12:09;;;;;;;33.53;19.88;;;;;;;1.24;96.59;95426.25;4985931;28;20499;-75
2022/01/15 16:14:34;;;;;;;33.47;19.90;;;;;;;1.12;97.04;95427.09;4985375;28;20173;-75
2022/01/15 16:17:03;;;;;;;27.67;18.42;;;;;;;1.12;97.70;95426.25;4986408;28;20030;-75
2022/01/15 16:19:29;;;;;;;37.58;22.13;;;;;;;1.01;98.61;95430.34;4983833;28;20153;-75
2022/01/15 16:21:54;;;;;;;40.28;23.20;;;;;;;0.96;99.03;95436.66;4982823;28;20023;-75
2022/01/15 16:24:20;;;;;;;31.50;19.15;;;;;;;1.02;98.75;95441.34;4985227;28;20033;-75
2022/01/15 16:26:46;;;;;;;35.28;22.65;;;;;;;0.97;98.89;95436.53;4985486;28;20037;-76
2022/01/15 16:29:12;;;;;;;35.00;22.38;;;;;;;0.88;100.00;95439.72;4981698;28;20034;-76
2022/01/15 16:31:37;;;;;;;37.50;20.48;;;;;;;0.91;99.93;95439.50;4986531;28;20480;-76
2022/01/15 16:34:06;;;;;;;30.50;20.40;;;;;;;0.92;100.00;95442.88;4983681;28;20097;-76